Hovedside
METAR-TAF:

METAR-TAF

Lufthavner :

Diori Hamani internasjonale lufthavn

Niamey, Niger

breddegrad: 13-29N, lengdegrad: 002-10E, høyde over havet: 223 m

Gjeldene værobservasjon

Denne rapporten ble laget for 1 time og 2 minutter siden, klokken 03:00 UTC
Vind 4 kt fra Sør
Temperatur 27°C
Luftfuktighet 89%
Trykk 1010 hPa
Sikt 10 km eller mer
ingen skyer under 1500 m og ingen bygeskyer

METAR: DRRN 200300Z 17004KT CAVOK 27/25 Q1010 NOSIG

Tid: 05:02 (04:02 UTC)

Varsel

Denne rapporten ble laget for 17 timer og 2 minutter siden, klokken 11:00 UTC
Varsel gyldig fra 19. klokken 12 UTC til 20. klokken 18 UTC
Vind 8 kt fra Sør-sørvest
Sikt: 8000 m
Få skyer i en høyde av 2000 ft
Sannsynlighet 30% :
Midlertidig
fra 19. klokken 15 UTC til 19. klokken 20 UTC
Få skyer i en høyde av 2600 ft, Bygeskyer.
torden

TAF: DRRN 191100Z 1912/2018 20008KT 8000 FEW020 PROB30 TEMPO 1915/1920 TS FEW026CB

Værobservasjoner og værvarsel for over 4000 flyplasser (METAR- og TAF-rapporter).

Tilgjengelige stasjoner er representert av de røde og gule prikkene på kartet.

Hold musepekeren over prikken for å se navnet på stasjonen.

Klikk så for å se værobservasjoner og -varsler.

For å forandre kartet kan du klikke på den grønne knappen med svart kryss for å zoome inn, på den grønne knappen med strek for å zoome ut, eller på de grønne pilene for å se tilstøtende kart.


METAR-TAF: